Time;durP1;ratioP1;P1;durP2;ratioP2;P2;SDS_P1;SDS_P2;PMS_P1;PMS_P2;Temp;Humidity;BMP_temperature;BMP_pressure;BME280_temperature;BME280_humidity;BME280_pressure;Samples;Min_cycle;Max_cycle;Signal;HPM_P1;HPM_P2
2022/12/27 00:01:18;;;;;;;0.70;0.70;;;3.10;99.90;;;;;;5054280;28;20051;-82
2022/12/27 00:03:45;;;;;;;0.68;0.68;;;3.30;99.90;;;;;;5072802;28;20051;-82
2022/12/27 00:06:14;;;;;;;0.68;0.68;;;3.60;99.90;;;;;;5071023;28;20044;-80
2022/12/27 00:08:40;;;;;;;0.70;0.70;;;3.20;99.90;;;;;;5091171;22;20054;-77
2022/12/27 00:11:10;;;;;;;;;;;3.70;99.90;;;;;;5000026;28;20203;-77
2022/12/27 00:13:36;;;;;;;0.50;0.50;;;3.20;99.90;;;;;;5000972;28;20329;-78
2022/12/27 00:16:10;;;;;;;1.35;1.35;;;3.70;99.90;;;;;;4999282;28;20375;-79
2022/12/27 00:18:37;;;;;;;0.70;0.70;;;3.30;99.90;;;;;;4988865;28;20207;-79
2022/12/27 00:21:05;;;;;;;0.68;0.68;;;3.30;99.90;;;;;;5001282;28;20062;-80
2022/12/27 00:23:34;;;;;;;0.70;0.70;;;3.40;99.90;;;;;;4953626;28;21012;-79
2022/12/27 00:26:02;;;;;;;0.60;0.60;;;3.40;99.90;;;;;;4976514;28;20050;-78
2022/12/27 00:28:32;;;;;;;0.63;0.63;;;3.40;99.90;;;;;;4960219;28;20057;-78
2022/12/27 00:30:59;;;;;;;0.60;0.60;;;3.60;99.90;;;;;;4974482;28;20049;-78
2022/12/27 00:33:27;;;;;;;0.60;0.60;;;4.10;99.90;;;;;;4962750;28;20038;-77
2022/12/27 00:35:53;;;;;;;0.60;0.60;;;3.70;99.90;;;;;;4978628;28;20388;-78
2022/12/27 00:38:19;;;;;;;0.73;0.73;;;3.50;99.90;;;;;;4945667;28;20054;-78
2022/12/27 00:40:45;;;;;;;0.70;0.70;;;3.80;99.90;;;;;;4943323;28;20046;-78
2022/12/27 00:43:11;;;;;;;0.70;0.70;;;3.50;99.90;;;;;;4975542;28;20046;-77
2022/12/27 00:45:36;;;;;;;0.70;0.70;;;3.50;99.90;;;;;;4930989;28;20053;-77
2022/12/27 00:48:02;;;;;;;0.60;0.60;;;4.10;99.90;;;;;;4973441;28;20066;-78
2022/12/27 00:50:28;;;;;;;0.68;0.68;;;3.40;99.90;;;;;;4976349;28;20042;-78
2022/12/27 00:52:54;;;;;;;0.80;0.80;;;3.40;99.90;;;;;;4974122;28;20042;-78
2022/12/27 00:55:27;;;;;;;0.63;0.63;;;3.40;99.90;;;;;;4960961;28;20038;-78
2022/12/27 00:57:53;;;;;;;0.70;0.70;;;2.80;99.90;;;;;;4988787;28;20046;-77
2022/12/27 01:00:19;;;;;;;1.08;1.08;;;3.40;99.90;;;;;;4985440;28;20038;-76
2022/12/27 01:02:45;;;;;;;0.70;0.70;;;3.40;99.90;;;;;;4978622;28;20069;-77
2022/12/27 01:05:10;;;;;;;0.60;0.60;;;3.50;99.90;;;;;;4976318;28;20125;-78
2022/12/27 01:07:36;;;;;;;;;;;3.60;99.90;;;;;;4980851;28;20070;-79
2022/12/27 01:10:03;;;;;;;0.50;0.50;;;3.70;99.90;;;;;;4945143;28;20368;-79
2022/12/27 01:12:31;;;;;;;0.70;0.70;;;3.80;99.90;;;;;;4930832;28;20529;-79
2022/12/27 01:15:00;;;;;;;0.50;0.50;;;3.90;99.90;;;;;;4961951;28;20045;-79
2022/12/27 01:17:28;;;;;;;0.50;0.50;;;4.30;99.90;;;;;;4974055;28;20072;-80
2022/12/27 01:19:54;;;;;;;0.70;0.70;;;4.00;99.90;;;;;;4973619;28;20062;-79
2022/12/27 01:22:20;;;;;;;0.52;0.52;;;3.00;99.90;;;;;;4981110;28;20604;-78
2022/12/27 01:24:46;;;;;;;0.50;0.50;;;4.00;99.90;;;;;;4965135;28;20046;-79
2022/12/27 01:27:12;;;;;;;0.50;0.50;;;3.90;99.90;;;;;;4961552;28;20050;-78
2022/12/27 01:29:38;;;;;;;0.60;0.60;;;4.50;99.90;;;;;;4962318;28;20077;-78
2022/12/27 01:32:04;;;;;;;0.70;0.70;;;5.00;99.90;;;;;;4946515;28;20035;-79
2022/12/27 01:34:30;;;;;;;0.70;0.70;;;4.10;99.90;;;;;;4965513;28;21774;-78
2022/12/27 01:36:55;;;;;;;0.68;0.68;;;4.30;99.90;;;;;;4963037;28;20046;-79
2022/12/27 01:39:21;;;;;;;0.55;0.55;;;4.30;99.90;;;;;;4983367;28;20555;-79
2022/12/27 01:44:48;;;;;;;0.50;0.50;;;4.40;99.90;;;;;;4954433;28;20056;-80
2022/12/27 01:47:19;;;;;;;1.35;1.35;;;4.30;99.90;;;;;;4978745;28;20038;-79
2022/12/27 01:50:09;;;;;;;0.60;0.60;;;4.40;99.90;;;;;;4995919;28;20396;-79
2022/12/27 01:52:48;;;;;;;0.60;0.60;;;4.40;99.90;;;;;;4964085;28;20038;-79
2022/12/27 01:55:33;;;;;;;0.70;0.70;;;4.50;99.90;;;;;;4966569;28;20125;-79
2022/12/27 01:58:10;;;;;;;0.50;0.50;;;4.50;99.90;;;;;;4977435;28;20070;-79
2022/12/27 02:00:36;;;;;;;;;;;4.50;99.90;;;;;;4952468;28;20054;-78
2022/12/27 02:03:04;;;;;;;0.70;0.70;;;4.70;99.90;;;;;;4980936;28;19921;-78
2022/12/27 02:05:31;;;;;;;0.60;0.60;;;4.70;99.90;;;;;;4979947;28;20058;-79
2022/12/27 02:08:10;;;;;;;0.60;0.60;;;4.50;99.90;;;;;;4965068;28;20049;-78
2022/12/27 02:10:36;;;;;;;0.60;0.60;;;4.50;99.90;;;;;;4979128;28;20054;-80
2022/12/27 02:13:04;;;;;;;0.57;0.57;;;5.40;99.90;;;;;;4959791;28;20060;-79
2022/12/27 02:15:30;;;;;;;0.52;0.52;;;4.60;99.90;;;;;;4994063;28;20030;-79
2022/12/27 02:17:56;;;;;;;0.52;0.52;;;4.60;99.90;;;;;;4952032;28;20476;-78
2022/12/27 02:20:23;;;;;;;2.25;2.15;;;4.70;99.90;;;;;;4963262;28;20125;-79
2022/12/27 02:26:26;;;;;;;1.13;1.13;;;4.80;99.90;;;;;;4981605;28;20047;-78
2022/12/27 02:29:05;;;;;;;0.40;0.40;;;4.70;99.90;;;;;;4980027;28;20049;-78
2022/12/27 02:31:58;;;;;;;0.60;0.60;;;4.70;99.90;;;;;;4980114;28;20503;-79
2022/12/27 02:34:30;;;;;;;0.70;0.70;;;4.80;99.90;;;;;;4964618;28;20047;-79
2022/12/27 02:37:00;;;;;;;0.60;0.60;;;4.60;99.90;;;;;;4979639;28;20472;-78
2022/12/27 02:39:28;;;;;;;0.60;0.60;;;5.10;99.90;;;;;;4961839;28;20049;-79
2022/12/27 02:53:19;;;;;;;0.60;0.60;;;4.40;99.90;;;;;;4983500;28;20088;-78
2022/12/27 02:59:13;;;;;;;0.55;0.55;;;4.40;99.90;;;;;;4979733;28;20046;-79
2022/12/27 03:05:04;;;;;;;0.65;0.65;;;4.60;99.90;;;;;;4995475;28;20067;-79
2022/12/27 03:08:21;;;;;;;0.40;0.40;;;4.60;99.90;;;;;;4964060;28;20049;-79
2022/12/27 03:16:57;;;;;;;0.55;0.55;;;4.50;99.90;;;;;;4979928;28;20049;-77
2022/12/27 03:25:27;;;;;;;0.70;0.70;;;4.60;99.90;;;;;;4973902;28;20057;-79
2022/12/27 03:33:31;;;;;;;0.60;0.60;;;4.50;99.90;;;;;;4963083;28;20085;-77
2022/12/27 03:38:54;;;;;;;0.70;0.70;;;4.40;99.90;;;;;;4976661;28;20395;-78
2022/12/27 03:44:24;;;;;;;0.60;0.60;;;4.40;99.90;;;;;;4981669;28;20058;-79
2022/12/27 03:47:17;;;;;;;0.60;0.60;;;4.40;99.90;;;;;;4979351;28;20112;-79
2022/12/27 03:49:54;;;;;;;0.68;0.68;;;4.50;99.90;;;;;;4980268;28;20038;-77
2022/12/27 03:52:31;;;;;;;0.60;0.60;;;4.50;99.90;;;;;;4962237;28;20085;-78
2022/12/27 03:54:58;;;;;;;0.60;0.60;;;4.50;99.90;;;;;;4981459;28;20542;-79
2022/12/27 03:57:24;;;;;;;;;;;4.40;99.90;;;;;;4964236;28;20494;-79
2022/12/27 03:59:50;;;;;;;0.60;0.60;;;4.30;99.90;;;;;;4981264;28;20024;-79
2022/12/27 04:02:16;;;;;;;0.57;0.57;;;4.30;99.90;;;;;;4950471;28;20042;-80
2022/12/27 04:04:42;;;;;;;0.68;0.68;;;4.20;99.90;;;;;;4964456;28;20034;-78
2022/12/27 04:07:11;;;;;;;0.60;0.60;;;4.20;99.90;;;;;;4978198;28;21031;-78
2022/12/27 04:37:06;;;;;;;0.70;0.70;;;4.20;99.90;;;;;;4986688;28;20234;-79
2022/12/27 04:39:35;;;;;;;0.57;0.57;;;4.30;99.90;;;;;;4984891;28;20034;-79
2022/12/27 04:56:14;;;;;;;0.52;0.52;;;4.30;99.90;;;;;;4983990;28;20053;-78
2022/12/27 05:02:01;;;;;;;0.70;0.70;;;4.90;99.90;;;;;;4953289;28;20092;-78
2022/12/27 05:04:11;;;;;;;0.65;0.65;;;4.20;99.90;;;;;;4981698;28;20176;-79
2022/12/27 05:06:36;;;;;;;0.60;0.60;;;4.10;99.90;;;;;;4981897;28;20048;-79
2022/12/27 05:14:31;;;;;;;0.63;0.63;;;3.90;99.90;;;;;;4979420;28;20042;-80
2022/12/27 05:16:57;;;;;;;0.60;0.60;;;3.90;99.90;;;;;;4964788;28;20487;-80
2022/12/27 05:19:23;;;;;;;;;;;3.80;99.90;;;;;;4965027;28;20053;-79
2022/12/27 05:27:17;;;;;;;0.60;0.60;;;3.80;99.90;;;;;;4997413;28;20448;-79
2022/12/27 05:29:44;;;;;;;0.68;0.68;;;3.80;99.90;;;;;;4981006;28;20043;-79
2022/12/27 05:32:10;;;;;;;0.50;0.50;;;3.70;99.90;;;;;;4996010;28;20081;-79
2022/12/27 05:34:36;;;;;;;0.80;0.80;;;3.70;99.90;;;;;;4981387;28;20069;-79
2022/12/27 05:37:01;;;;;;;0.60;0.60;;;3.70;99.90;;;;;;4983820;28;20085;-80
2022/12/27 05:39:27;;;;;;;0.77;0.77;;;3.70;99.90;;;;;;4965279;28;20098;-80
2022/12/27 05:41:53;;;;;;;;;;;3.70;99.90;;;;;;4966420;28;20045;-79
2022/12/27 05:44:19;;;;;;;1.33;1.23;;;3.70;99.90;;;;;;4982247;28;19933;-79
2022/12/27 05:46:44;;;;;;;0.68;0.68;;;3.80;99.90;;;;;;4978487;28;20125;-79
2022/12/27 05:49:10;;;;;;;0.50;0.50;;;3.80;99.90;;;;;;4963367;28;20499;-79
2022/12/27 05:51:36;;;;;;;0.70;0.70;;;4.20;99.90;;;;;;4963029;28;20038;-79
2022/12/27 05:54:03;;;;;;;0.77;0.77;;;4.00;99.90;;;;;;4979603;28;20049;-79
2022/12/27 05:56:30;;;;;;;0.60;0.60;;;3.70;99.90;;;;;;4962306;28;20159;-78
2022/12/27 05:58:56;;;;;;;0.70;0.70;;;4.00;99.90;;;;;;4979975;28;20518;-79
2022/12/27 06:01:22;;;;;;;0.93;0.90;;;4.50;99.90;;;;;;4979587;28;20046;-79
2022/12/27 06:03:48;;;;;;;;;;;3.60;99.90;;;;;;4948999;28;20492;-79
2022/12/27 06:06:14;;;;;;;0.65;0.65;;;3.50;99.90;;;;;;4965437;28;19991;-79
2022/12/27 06:08:40;;;;;;;0.57;0.57;;;3.40;99.90;;;;;;4962838;28;20062;-79
2022/12/27 06:11:10;;;;;;;0.50;0.50;;;3.40;99.90;;;;;;4964275;28;20403;-79
2022/12/27 06:13:37;;;;;;;0.60;0.60;;;3.50;99.90;;;;;;4997052;28;20069;-79
2022/12/27 06:16:05;;;;;;;0.60;0.60;;;3.40;99.90;;;;;;4964135;28;20042;-79
2022/12/27 06:18:33;;;;;;;0.70;0.70;;;3.40;99.90;;;;;;4951235;28;20140;-80
2022/12/27 06:21:05;;;;;;;0.55;0.55;;;3.30;99.90;;;;;;4984986;28;20057;-79
2022/12/27 06:23:37;;;;;;;0.63;0.63;;;3.40;99.90;;;;;;4980927;28;20043;-80
2022/12/27 06:26:09;;;;;;;4.88;1.00;;;3.50;99.90;;;;;;4983499;28;20046;-79
2022/12/27 06:28:35;;;;;;;1.23;1.20;;;3.40;99.90;;;;;;4969001;28;20038;-79
2022/12/27 06:31:02;;;;;;;0.60;0.60;;;3.40;99.90;;;;;;4979977;28;20146;-79
2022/12/27 06:33:28;;;;;;;0.75;0.75;;;3.60;99.90;;;;;;4968007;28;20097;-80
2022/12/27 06:35:55;;;;;;;0.60;0.60;;;3.40;99.90;;;;;;4980977;28;20042;-80
2022/12/27 06:38:21;;;;;;;2.22;1.20;;;3.50;99.90;;;;;;4983034;28;20458;-80
2022/12/27 06:40:46;;;;;;;0.60;0.60;;;3.40;99.90;;;;;;4962963;28;20053;-78
2022/12/27 06:43:12;;;;;;;0.70;0.70;;;3.60;99.90;;;;;;4964904;28;20070;-81
2022/12/27 06:45:38;;;;;;;0.80;0.80;;;3.50;99.90;;;;;;4977832;28;20439;-79
2022/12/27 06:48:04;;;;;;;0.70;0.70;;;4.80;99.90;;;;;;4980495;28;20483;-80
2022/12/27 06:50:35;;;;;;;0.63;0.63;;;3.40;99.90;;;;;;4983348;28;20065;-79
2022/12/27 06:53:00;;;;;;;0.70;0.70;;;4.20;99.90;;;;;;4965466;28;20042;-79
2022/12/27 06:55:26;;;;;;;0.70;0.70;;;3.40;99.90;;;;;;4948824;28;20042;-79
2022/12/27 06:57:52;;;;;;;0.60;0.60;;;3.40;99.90;;;;;;4978774;28;20080;-79
2022/12/27 07:00:19;;;;;;;0.50;0.50;;;3.30;99.90;;;;;;4977000;28;20644;-79
2022/12/27 07:02:45;;;;;;;0.50;0.50;;;3.20;99.90;;;;;;4961940;28;21747;-79
2022/12/27 07:05:11;;;;;;;0.80;0.80;;;3.10;99.90;;;;;;4977901;28;20169;-79
2022/12/27 07:07:36;;;;;;;1.08;1.08;;;3.10;99.90;;;;;;4979207;28;20068;-79
2022/12/27 07:10:02;;;;;;;0.63;0.63;;;3.00;99.90;;;;;;4982379;28;20145;-81
2022/12/27 07:12:28;;;;;;;0.60;0.60;;;2.90;99.90;;;;;;4940361;28;20046;-80
2022/12/27 07:14:53;;;;;;;0.70;0.70;;;2.90;99.90;;;;;;4970733;28;20038;-80
2022/12/27 07:17:19;;;;;;;0.70;0.70;;;2.90;99.90;;;;;;4986507;28;20061;-79
2022/12/27 07:19:47;;;;;;;0.70;0.70;;;2.90;99.90;;;;;;4948539;28;20042;-80
2022/12/27 07:22:12;;;;;;;0.60;0.60;;;2.90;99.90;;;;;;4984810;28;20058;-80
2022/12/27 07:24:38;;;;;;;0.68;0.68;;;2.80;99.90;;;;;;4981831;28;20478;-80
2022/12/27 07:27:05;;;;;;;0.70;0.70;;;2.90;99.90;;;;;;4981784;28;20047;-79
2022/12/27 07:29:37;;;;;;;0.70;0.70;;;2.70;99.90;;;;;;4981642;28;20081;-79
2022/12/27 07:32:03;;;;;;;0.70;0.70;;;3.10;99.90;;;;;;4952287;28;20452;-79
2022/12/27 07:34:30;;;;;;;0.65;0.65;;;2.70;99.90;;;;;;4965577;28;20050;-79
2022/12/27 07:36:55;;;;;;;0.60;0.60;;;3.20;99.90;;;;;;4950388;28;20057;-79
2022/12/27 07:39:21;;;;;;;0.60;0.60;;;3.40;99.90;;;;;;4966801;28;20039;-79
2022/12/27 07:41:48;;;;;;;0.75;0.75;;;2.60;99.90;;;;;;4983283;28;20042;-80
2022/12/27 07:44:14;;;;;;;0.70;0.70;;;2.60;99.90;;;;;;4982597;28;20042;-80
2022/12/27 07:46:40;;;;;;;0.60;0.60;;;2.60;99.90;;;;;;4946446;28;20049;-80
2022/12/27 07:49:08;;;;;;;0.70;0.70;;;2.90;99.90;;;;;;4981826;28;20043;-79
2022/12/27 07:51:34;;;;;;;0.60;0.60;;;2.50;99.90;;;;;;4966144;28;20085;-80
2022/12/27 07:54:00;;;;;;;0.63;0.63;;;1.90;99.90;;;;;;4960107;28;20046;-79
2022/12/27 07:56:27;;;;;;;0.70;0.70;;;2.60;99.90;;;;;;4984025;28;20436;-79
2022/12/27 07:58:55;;;;;;;1.58;1.48;;;2.60;99.90;;;;;;4979905;28;20092;-80
2022/12/27 08:01:23;;;;;;;0.68;0.68;;;2.60;99.90;;;;;;4983537;28;20089;-80
2022/12/27 08:03:49;;;;;;;0.80;0.80;;;2.60;99.90;;;;;;4968041;28;20038;-80
2022/12/27 08:06:22;;;;;;;0.82;0.82;;;2.60;99.90;;;;;;4964874;28;20049;-80
2022/12/27 08:08:49;;;;;;;0.50;0.50;;;2.70;99.90;;;;;;4983078;28;20065;-80
2022/12/27 08:11:15;;;;;;;0.70;0.70;;;2.70;99.90;;;;;;4984266;28;20046;-80
2022/12/27 08:13:41;;;;;;;;;;;3.70;99.90;;;;;;4980741;28;20059;-80
2022/12/27 08:16:14;;;;;;;0.68;0.68;;;2.70;99.90;;;;;;4982621;28;19995;-80
2022/12/27 08:18:40;;;;;;;0.70;0.70;;;2.70;99.90;;;;;;4983978;28;20048;-80
2022/12/27 08:21:06;;;;;;;0.98;0.98;;;2.70;99.90;;;;;;4964158;28;20434;-80
2022/12/27 08:23:32;;;;;;;0.70;0.70;;;2.70;99.90;;;;;;4947209;28;20058;-79
2022/12/27 08:25:58;;;;;;;0.70;0.70;;;2.70;99.90;;;;;;4948740;28;20046;-79
2022/12/27 08:28:23;;;;;;;;;;;2.70;99.90;;;;;;4981009;28;20053;-79
2022/12/27 08:30:49;;;;;;;0.50;0.50;;;2.70;99.90;;;;;;4966293;28;19925;-80
2022/12/27 08:33:15;;;;;;;0.80;0.80;;;3.50;99.90;;;;;;4948999;28;20471;-79
2022/12/27 08:35:44;;;;;;;0.60;0.60;;;3.40;99.90;;;;;;4963880;28;20181;-79
2022/12/27 08:38:10;;;;;;;0.60;0.60;;;2.70;99.90;;;;;;4964872;28;20042;-79
2022/12/27 08:40:44;;;;;;;0.60;0.60;;;2.70;99.90;;;;;;4980473;28;20042;-81
2022/12/27 08:43:11;;;;;;;0.55;0.55;;;2.70;99.90;;;;;;4979771;28;20046;-80
2022/12/27 08:45:38;;;;;;;0.70;0.70;;;3.50;99.90;;;;;;4964778;28;20042;-80
2022/12/27 08:48:04;;;;;;;0.60;0.60;;;4.00;99.90;;;;;;4963406;28;20050;-79
2022/12/27 08:50:31;;;;;;;0.70;0.70;;;2.80;99.90;;;;;;4968560;28;20046;-80
2022/12/27 08:52:58;;;;;;;0.60;0.60;;;3.00;99.90;;;;;;4966512;28;20121;-78
2022/12/27 08:55:25;;;;;;;0.70;0.70;;;3.10;99.90;;;;;;4964333;28;20042;-79
2022/12/27 08:57:58;;;;;;;0.50;0.50;;;3.00;99.90;;;;;;4982449;28;20042;-80
2022/12/27 09:00:25;;;;;;;0.60;0.60;;;3.00;99.90;;;;;;4981469;28;20191;-80
2022/12/27 09:02:52;;;;;;;0.70;0.70;;;3.10;99.90;;;;;;4967421;28;20486;-80
2022/12/27 09:05:18;;;;;;;0.70;0.70;;;3.20;99.90;;;;;;4980295;28;20034;-78
2022/12/27 09:07:45;;;;;;;0.70;0.70;;;3.50;99.90;;;;;;4945522;28;20057;-79
2022/12/27 09:10:12;;;;;;;0.60;0.60;;;3.40;99.90;;;;;;4965396;28;20503;-79
2022/12/27 09:12:37;;;;;;;0.63;0.63;;;3.50;99.90;;;;;;4995857;28;20042;-79
2022/12/27 09:15:03;;;;;;;0.70;0.70;;;3.40;99.90;;;;;;4983105;28;20099;-79
2022/12/27 09:17:29;;;;;;;;;;;3.50;99.90;;;;;;4982918;28;20563;-79
2022/12/27 09:19:55;;;;;;;0.65;0.65;;;3.50;99.90;;;;;;4982548;28;19921;-80
2022/12/27 09:22:20;;;;;;;0.70;0.70;;;3.50;99.90;;;;;;5000296;28;20046;-80
2022/12/27 09:24:47;;;;;;;0.60;0.60;;;3.70;99.90;;;;;;4970221;28;20125;-79
2022/12/27 09:27:13;;;;;;;0.90;0.90;;;3.60;99.90;;;;;;4970929;28;20042;-80
2022/12/27 09:29:39;;;;;;;0.65;0.65;;;4.80;99.90;;;;;;4960033;28;20034;-78
2022/12/27 09:32:06;;;;;;;0.70;0.70;;;3.70;99.90;;;;;;4970594;28;20136;-79
2022/12/27 09:34:34;;;;;;;0.60;0.60;;;3.90;99.90;;;;;;5000771;28;20096;-79
2022/12/27 09:37:00;;;;;;;0.65;0.65;;;3.80;99.90;;;;;;4986462;28;20109;-79
2022/12/27 09:39:26;;;;;;;0.70;0.70;;;3.80;99.90;;;;;;4984756;28;20045;-79
2022/12/27 09:42:01;;;;;;;0.50;0.50;;;4.20;99.90;;;;;;4989550;28;20480;-80
2022/12/27 09:44:49;;;;;;;0.70;0.70;;;3.90;99.90;;;;;;4974335;28;20046;-87
2022/12/27 09:47:32;;;;;;;0.80;0.80;;;3.90;99.90;;;;;;4989106;28;20057;-83
2022/12/27 09:50:06;;;;;;;0.52;0.52;;;3.90;99.90;;;;;;4984193;28;20061;-84
2022/12/27 09:52:42;;;;;;;0.55;0.55;;;4.00;99.90;;;;;;4985812;28;20046;-83
2022/12/27 09:55:19;;;;;;;0.73;0.73;;;4.00;99.90;;;;;;4984620;28;20050;-83
2022/12/27 09:57:45;;;;;;;0.60;0.60;;;4.10;99.90;;;;;;4979297;28;20052;-85
2022/12/27 10:00:16;;;;;;;0.73;0.73;;;4.10;99.90;;;;;;4980338;28;20116;-83
2022/12/27 10:02:43;;;;;;;0.60;0.60;;;4.20;99.90;;;;;;4979728;28;20107;-83
2022/12/27 10:05:20;;;;;;;0.60;0.60;;;4.20;99.90;;;;;;4965788;28;20040;-84
2022/12/27 10:08:21;;;;;;;0.60;0.60;;;4.20;99.90;;;;;;4969395;28;20137;-82
2022/12/27 10:11:02;;;;;;;0.80;0.80;;;4.30;99.90;;;;;;4979417;28;20054;-85
2022/12/27 10:13:40;;;;;;;0.70;0.70;;;4.30;99.90;;;;;;4979936;28;20042;-86
2022/12/27 10:16:27;;;;;;;0.50;0.50;;;4.40;99.90;;;;;;4981911;28;20046;-82
2022/12/27 10:18:59;;;;;;;0.73;0.73;;;4.40;99.90;;;;;;4977171;28;20149;-83
2022/12/27 10:21:26;;;;;;;0.60;0.60;;;4.40;99.90;;;;;;4995597;28;20472;-85
2022/12/27 10:24:05;;;;;;;0.57;0.57;;;4.50;99.90;;;;;;4978159;28;20042;-83
2022/12/27 10:26:32;;;;;;;0.60;0.60;;;4.50;99.90;;;;;;4967783;28;20080;-83
2022/12/27 10:29:10;;;;;;;0.70;0.70;;;4.60;99.90;;;;;;4986151;28;20044;-82
2022/12/27 10:31:41;;;;;;;0.90;0.90;;;4.70;99.90;;;;;;4987534;28;20109;-83
2022/12/27 10:34:11;;;;;;;0.50;0.50;;;4.80;99.90;;;;;;4985848;28;20038;-86
2022/12/27 10:36:40;;;;;;;0.55;0.55;;;4.90;99.90;;;;;;4962201;28;20046;-83
2022/12/27 10:39:28;;;;;;;0.75;0.75;;;5.00;99.90;;;;;;4964679;28;20081;-83
2022/12/27 10:42:31;;;;;;;0.57;0.57;;;5.10;99.90;;;;;;4981924;28;20042;-83
2022/12/27 10:45:37;;;;;;;0.60;0.60;;;5.20;99.90;;;;;;4984179;28;20415;-83
2022/12/27 10:48:30;;;;;;;0.75;0.75;;;5.20;99.90;;;;;;4995930;28;20042;-83
2022/12/27 10:51:04;;;;;;;0.50;0.50;;;5.30;99.90;;;;;;4987252;28;20566;-84
2022/12/27 10:53:43;;;;;;;0.70;0.70;;;5.50;99.90;;;;;;4997696;28;20080;-83
2022/12/27 10:56:29;;;;;;;0.60;0.60;;;5.50;99.90;;;;;;4980072;28;20096;-87
2022/12/27 10:59:10;;;;;;;0.50;0.50;;;5.60;99.90;;;;;;4999001;28;20038;-84
2022/12/27 11:01:36;;;;;;;0.73;0.73;;;5.80;99.90;;;;;;4972404;28;20042;-82
2022/12/27 11:04:18;;;;;;;0.70;0.70;;;5.90;99.90;;;;;;4985169;28;20038;-83
2022/12/27 11:06:47;;;;;;;0.60;0.60;;;5.70;99.90;;;;;;4988337;28;20055;-82
2022/12/27 11:09:26;;;;;;;1.27;1.27;;;5.80;99.90;;;;;;5012246;28;20058;-84
2022/12/27 11:12:12;;;;;;;0.50;0.50;;;5.90;99.90;;;;;;5000377;28;20038;-86
2022/12/27 11:14:39;;;;;;;0.70;0.70;;;5.90;99.90;;;;;;4970678;28;20034;-84
2022/12/27 11:17:12;;;;;;;0.57;0.57;;;6.00;99.90;;;;;;5005407;28;20047;-83
2022/12/27 11:19:45;;;;;;;0.70;0.70;;;6.10;99.90;;;;;;4983994;28;20089;-86
2022/12/27 11:22:11;;;;;;;0.73;0.73;;;6.10;99.90;;;;;;4989194;28;20125;-87
2022/12/27 11:24:46;;;;;;;0.60;0.60;;;6.10;99.90;;;;;;4971393;28;20125;-84
2022/12/27 11:27:27;;;;;;;0.60;0.60;;;6.10;99.90;;;;;;4991676;28;20042;-84
2022/12/27 11:29:57;;;;;;;0.70;0.70;;;6.20;99.90;;;;;;4997178;28;20047;-85
2022/12/27 11:32:23;;;;;;;0.80;0.80;;;6.20;99.90;;;;;;4992560;28;20046;-85
2022/12/27 11:34:53;;;;;;;0.57;0.57;;;6.20;99.90;;;;;;4994575;28;20043;-82
2022/12/27 11:37:23;;;;;;;0.80;0.80;;;6.30;99.90;;;;;;4991102;28;20145;-83
2022/12/27 11:39:52;;;;;;;0.40;0.40;;;6.30;99.90;;;;;;4981632;28;20053;-82
2022/12/27 11:42:37;;;;;;;0.50;0.50;;;6.30;99.90;;;;;;4988349;28;20070;-83
2022/12/27 11:45:25;;;;;;;0.52;0.52;;;6.30;99.90;;;;;;4985162;28;20054;-84
2022/12/27 11:48:22;;;;;;;0.50;0.50;;;6.30;99.90;;;;;;5006049;28;20042;-86
2022/12/27 11:51:14;;;;;;;0.60;0.60;;;6.30;99.90;;;;;;4984146;28;20396;-84
2022/12/27 11:53:58;;;;;;;0.73;0.73;;;6.30;99.90;;;;;;4984552;28;20401;-83
2022/12/27 11:56:29;;;;;;;0.68;0.68;;;6.30;99.90;;;;;;4972288;28;20105;-83
2022/12/27 11:59:12;;;;;;;0.60;0.60;;;6.30;99.90;;;;;;4987088;28;20046;-84
2022/12/27 12:02:02;;;;;;;0.60;0.60;;;6.20;99.90;;;;;;4996209;28;20057;-82
2022/12/27 12:04:50;;;;;;;0.50;0.50;;;6.20;99.90;;;;;;4979893;28;20047;-84
2022/12/27 12:07:36;;;;;;;0.50;0.50;;;6.20;99.90;;;;;;4981419;28;20054;-83
2022/12/27 12:10:14;;;;;;;0.50;0.50;;;6.20;99.90;;;;;;4981087;28;20054;-81
2022/12/27 12:12:52;;;;;;;0.73;0.73;;;6.20;99.90;;;;;;4992144;28;20498;-84
2022/12/27 12:15:29;;;;;;;1.00;1.00;;;6.20;99.90;;;;;;4985939;28;20085;-83
2022/12/27 12:17:58;;;;;;;0.98;0.98;;;6.20;99.90;;;;;;4982549;28;20391;-83
2022/12/27 12:20:53;;;;;;;0.60;0.60;;;6.20;99.90;;;;;;4980916;28;20042;-83
2022/12/27 12:23:56;;;;;;;0.50;0.50;;;6.20;99.90;;;;;;4961470;28;20039;-83
2022/12/27 12:26:30;;;;;;;0.50;0.50;;;6.20;99.90;;;;;;4981483;28;20388;-83
2022/12/27 12:29:14;;;;;;;0.50;0.50;;;6.30;99.90;;;;;;4975218;28;20055;-82
2022/12/27 12:32:18;;;;;;;0.50;0.50;;;6.30;99.90;;;;;;4976759;28;20100;-84
2022/12/27 12:35:11;;;;;;;0.70;0.70;;;6.30;99.90;;;;;;4961210;28;20121;-83
2022/12/27 12:37:55;;;;;;;0.60;0.60;;;6.40;99.90;;;;;;4928871;28;20042;-84
2022/12/27 12:40:50;;;;;;;0.80;0.80;;;6.40;99.90;;;;;;4979990;28;20531;-85
2022/12/27 12:43:55;;;;;;;0.68;0.68;;;6.40;99.90;;;;;;4985170;28;21166;-84
2022/12/27 12:46:32;;;;;;;0.50;0.50;;;6.40;99.90;;;;;;4983170;28;20054;-83
2022/12/27 12:48:57;;;;;;;;;;;6.40;99.90;;;;;;4998912;28;20045;-83
2022/12/27 12:51:42;;;;;;;0.50;0.50;;;6.40;99.90;;;;;;4983090;28;20774;-84
2022/12/27 12:54:22;;;;;;;0.60;0.60;;;6.40;99.90;;;;;;5002426;28;20408;-82
2022/12/27 12:57:15;;;;;;;0.60;0.60;;;6.50;99.90;;;;;;4981920;28;20038;-82
2022/12/27 13:00:11;;;;;;;0.50;0.50;;;6.50;99.90;;;;;;4980816;28;20142;-84
2022/12/27 13:02:58;;;;;;;0.40;0.40;;;6.50;99.90;;;;;;4958258;28;20038;-81
2022/12/27 13:05:46;;;;;;;0.40;0.40;;;6.50;99.90;;;;;;4975762;28;20395;-82
2022/12/27 13:08:22;;;;;;;0.50;0.50;;;6.40;99.90;;;;;;4960389;28;20411;-82
2022/12/27 13:11:18;;;;;;;0.50;0.50;;;6.40;99.90;;;;;;4978891;28;20948;-82
2022/12/27 13:14:22;;;;;;;0.70;0.70;;;6.40;99.90;;;;;;4976323;28;20057;-82
2022/12/27 13:17:05;;;;;;;0.60;0.60;;;6.30;99.90;;;;;;4975660;28;20042;-82
2022/12/27 13:19:43;;;;;;;0.50;0.50;;;6.30;99.90;;;;;;4991717;28;20125;-83
2022/12/27 13:22:41;;;;;;;2.20;2.10;;;6.30;99.90;;;;;;4953051;28;20054;-82
2022/12/27 13:25:17;;;;;;;;;;;6.20;99.90;;;;;;4973233;28;20484;-82
2022/12/27 13:28:08;;;;;;;0.50;0.50;;;6.20;99.90;;;;;;4967918;28;19921;-82
2022/12/27 13:30:59;;;;;;;0.95;0.80;;;6.10;99.90;;;;;;4965789;28;20500;-81
2022/12/27 13:33:46;;;;;;;0.50;0.50;;;6.00;99.90;;;;;;4966537;28;20803;-83
2022/12/27 13:36:15;;;;;;;0.60;0.60;;;6.00;99.90;;;;;;4981434;28;20400;-81
2022/12/27 13:38:41;;;;;;;0.68;0.68;;;6.70;99.90;;;;;;4984254;28;20038;-83
2022/12/27 13:41:22;;;;;;;0.70;0.70;;;5.90;99.90;;;;;;4977832;28;20137;-81
2022/12/27 13:43:53;;;;;;;0.60;0.60;;;5.80;99.90;;;;;;4997374;28;20125;-83
2022/12/27 13:46:40;;;;;;;0.70;0.70;;;5.80;99.90;;;;;;4977522;28;20069;-83
2022/12/27 13:49:38;;;;;;;0.70;0.70;;;5.70;99.90;;;;;;4974465;28;20111;-82
2022/12/27 13:52:48;;;;;;;0.52;0.52;;;5.70;99.90;;;;;;4973652;28;20105;-82
2022/12/27 13:55:22;;;;;;;1.38;1.27;;;5.60;99.90;;;;;;4955772;28;20047;-82
2022/12/27 13:58:10;;;;;;;0.65;0.65;;;5.50;99.90;;;;;;4972319;28;20121;-83
2022/12/27 14:01:20;;;;;;;0.65;0.65;;;5.40;99.90;;;;;;4990606;28;20124;-84
2022/12/27 14:04:27;;;;;;;0.50;0.50;;;5.40;99.90;;;;;;4957961;28;20377;-84
2022/12/27 14:07:23;;;;;;;0.57;0.57;;;5.40;99.90;;;;;;4916327;29;20043;-85
2022/12/27 14:10:16;;;;;;;0.93;0.85;;;5.40;99.90;;;;;;4898282;29;20059;-83
2022/12/27 14:12:50;;;;;;;0.70;0.70;;;5.40;99.90;;;;;;4953715;28;20049;-83
2022/12/27 14:15:37;;;;;;;0.50;0.50;;;5.60;99.90;;;;;;4980826;28;20137;-82
2022/12/27 14:18:24;;;;;;;1.05;1.05;;;5.20;99.90;;;;;;4956498;28;20038;-85
2022/12/27 14:21:09;;;;;;;;;;;5.50;99.90;;;;;;4968934;28;20058;-83
2022/12/27 14:24:02;;;;;;;0.50;0.50;;;5.50;99.90;;;;;;4973065;28;19925;-84
2022/12/27 14:26:47;;;;;;;0.60;0.60;;;5.60;99.90;;;;;;4971493;28;20124;-83
2022/12/27 14:29:43;;;;;;;0.50;0.50;;;5.60;99.90;;;;;;4985686;28;20054;-83
2022/12/27 14:32:25;;;;;;;0.60;0.60;;;5.60;99.90;;;;;;4971613;28;20116;-83
2022/12/27 14:35:02;;;;;;;0.55;0.55;;;5.60;99.90;;;;;;4977549;28;20106;-84
2022/12/27 14:37:43;;;;;;;0.60;0.60;;;5.60;99.90;;;;;;4978501;28;20054;-84
2022/12/27 14:40:36;;;;;;;0.82;0.82;;;5.50;99.90;;;;;;4983647;28;20042;-83
2022/12/27 14:43:07;;;;;;;0.50;0.50;;;5.50;99.90;;;;;;4969868;28;20054;-82
2022/12/27 14:45:57;;;;;;;0.60;0.60;;;5.50;99.90;;;;;;4968862;28;20057;-83
2022/12/27 14:48:53;;;;;;;0.70;0.70;;;5.50;99.90;;;;;;4970255;28;20059;-82
2022/12/27 14:51:21;;;;;;;0.70;0.70;;;5.50;99.90;;;;;;4968159;28;20649;-82
2022/12/27 14:54:27;;;;;;;0.50;0.50;;;5.50;99.90;;;;;;4968904;28;20042;-81
2022/12/27 14:57:24;;;;;;;0.55;0.55;;;5.60;99.90;;;;;;4968640;28;20050;-81
2022/12/27 15:00:01;;;;;;;0.50;0.50;;;5.50;99.90;;;;;;4950773;28;20069;-81
2022/12/27 15:02:32;;;;;;;0.57;0.57;;;5.40;99.90;;;;;;4970987;28;20127;-81
2022/12/27 15:05:20;;;;;;;0.50;0.50;;;5.40;99.90;;;;;;4968388;28;20124;-80
2022/12/27 15:08:15;;;;;;;0.88;0.88;;;5.30;99.90;;;;;;4966900;28;20392;-81
2022/12/27 15:11:18;;;;;;;0.60;0.60;;;5.30;99.90;;;;;;4951396;28;20054;-81
2022/12/27 15:14:02;;;;;;;0.60;0.60;;;5.20;99.90;;;;;;4966557;28;20078;-81
2022/12/27 15:16:57;;;;;;;0.65;0.65;;;5.10;99.90;;;;;;4968807;28;20086;-83
2022/12/27 15:19:55;;;;;;;0.50;0.50;;;5.00;99.90;;;;;;4966672;28;20046;-83